Aircraft
UPR1004 PR-ACA A320
SUMU
Carrasco General Cesáreo L. Berisso International Airport
SBPA
Salgado Filho International Airport
Pilot:: Jair
Aircraft:: A320neo V2
Alternate: SBFL
Network: ivao
FLIGHT DETAILS
Distance: 381nm Duration 01h 22m
Cruise Speed: Flight Level: 34000
Validation: Validated Type Charter
Flight Fuel
ZFW: 42278
Block Fuel/Initial FOB: 11062
Flight Fuel: 3128
Cargo
Passengers: 145
Cargo: 9600
ROUTE
ROUTE: sumu dct sbpa
REMARKS:
DATE
Date: 26-05-08
Departure Time: 1056
Cargo: 9600
FLIGHT DETAILS
Crashed: No
Validator Comments: Validado por Rafael
Flight Rating: 99
LANDING ANALYSIS
Landing wind: 280º/16 kt
Landing heading: 104º
Landing VS:: -241 ft/min
Landing IAS:: 131 kt
Landing Force G: 1 G
Landing Bank: 1
Landing Pitch: -3
Landing Flaps: 100
Navigation Lights: ON
Landing Lights: ON
Beacon Lights: ON
Strobe Lights: ON
viserfly

ALTITUDE CHART

viserfly

MAIN EVENTS

DATE EVENT IAS ALTITUDE
2026-05-08 10:55:42 FLYacars version 1.3.5 10 115
2026-05-08 10:55:42 Aircraft boarding in progress 11 115
2026-05-08 10:55:42 FLAPS 25% 11 115
2026-05-08 10:55:42 Navigation Lights ON 11 115
2026-05-08 10:55:42 Beacon Lights ON 11 115
2026-05-08 10:55:42 Strobe Lights ON 11 115
2026-05-08 10:55:42 Landing Lights ON 11 115
2026-05-08 10:55:42 Taxi Lights ON 11 115
2026-05-08 10:55:42 Starting Engine 2 11 115
2026-05-08 10:55:42 Starting Engine 1 11 115
2026-05-08 10:56:04 Aircraft taxiing to runway 15 115
2026-05-08 10:56:26 Detected Take-off roll, HDG 232, IAS 153kt, GS 144kt, G-force 1.1g, Pitch -2.8deg, Bank 2.5deg, Wind 280/16kt, Temp 8°C 153 96
2026-05-08 10:56:26 Airborne 153 96
2026-05-08 10:56:26 Incorrect altimeter settings on takeoff 153 96
2026-05-08 10:56:36 Taxi Lights OFF 179 380
2026-05-08 10:56:48 Gear UP, IAS 187kt, GS 173kt, ALT 967ft AGL 187 1024
2026-05-08 10:57:07 FLAPS 0% 210kt, ALT 2009ft 210 2009
2026-05-08 10:59:04 Landing Lights OFF 250 9837
2026-05-08 11:17:40 Aircraft on Top Of Climb at 33501ft, IAS 261kt, GS 426kt, HDG 44deg, TAT -45deg, WIND 319/80kt 261 33501
2026-05-08 11:21:13 Aircraft on Top Of Descent at 33499ft, IAS 260kt, GS 419kt, HDG 44deg, TAT -45deg, WIND 320/85kt 260 33499
2026-05-08 11:58:18 Landing lights OFF below 10000fts 186 8998
2026-05-08 12:01:07 Landing Lights ON 186 6180
2026-05-08 12:13:17 FLAPS 25% 186kt, ALT 3822ft 186 3822
2026-05-08 12:16:06 FLAPS 50% 175kt, ALT 3250ft 175 3250
2026-05-08 12:18:17 Gear DOWN, IAS 177kt, GS 202kt, ALT 735ft AGL 177 734
2026-05-08 12:18:17 Gear UP, IAS 177kt, GS 202kt, ALT 732ft AGL 177 732
2026-05-08 12:18:22 FLAPS 75% 176kt, ALT 654ft 176 654
2026-05-08 12:18:22 FLAPS 100% 176kt, ALT 647ft 176 647
2026-05-08 12:18:22 Gear DOWN, IAS 176kt, GS 200kt, ALT 631ft AGL 176 645
2026-05-08 12:18:29 Taxi Lights ON 169 538
2026-05-08 12:19:06 Landed at destination with a landing rate of -241fpm, G-force 1.0g, Pitch -3.0deg, Bank 1.3deg, HDG 104deg, IAS 131kt, GS 149kt, Wind 280/16kt, Temp 15°C 131 21
2026-05-08 12:19:06 Incorrect altimeter settings on landing 131 21
2026-05-08 12:19:26 FLAPS 0% 31 17
2026-05-08 12:19:43 Aircraft taxiing to apron 9 21
2026-05-08 12:21:37 Strobe Lights OFF 40 17
2026-05-08 12:23:30 Beacon Lights OFF 0 17
2026-05-08 12:23:35 Aircraft at gate/stand, ground services are moving into position, disembarkation has begun. Remaining FOB 7934kg FLYacars v1.3.5 0 17
viserfly

ACARS DATA

DATE IAS GS ALTITUDE FUEL CONSUMED OAT FLIGHT STATUS
2026-05-08 10:56:12 58 49 113 16 8 TAXI TO RUNWAY
2026-05-08 10:56:42 181 172 629 72 8 TAKEOFF
2026-05-08 10:57:12 216 199 2263 124 5 INITIAL CLIMB
2026-05-08 10:57:42 245 272 3928 177 2 CLIMB
2026-05-08 10:58:12 246 297 6074 228 0 CLIMB
2026-05-08 10:58:42 247 306 8316 278 -3 CLIMB
2026-05-08 10:59:12 260 321 10132 329 -6 CLIMB
2026-05-08 10:59:42 280 349 11806 376 -9 CLIMB
2026-05-08 11:00:12 280 359 13941 422 -12 CLIMB
2026-05-08 11:00:42 280 369 15906 465 -16 CLIMB
2026-05-08 11:01:12 280 378 17744 507 -19 CLIMB
2026-05-08 11:01:42 280 388 19421 547 -21 CLIMB
2026-05-08 11:02:12 280 398 20951 587 -23 CLIMB
2026-05-08 11:02:42 280 406 22443 624 -26 CLIMB
2026-05-08 11:03:12 281 413 23817 658 -29 CLIMB
2026-05-08 11:03:42 281 420 25115 690 -32 CLIMB
2026-05-08 11:04:12 282 425 26324 722 -34 CLIMB
2026-05-08 11:04:42 280 429 27496 752 -36 CLIMB
2026-05-08 11:05:12 281 435 28481 781 -39 CLIMB
2026-05-08 11:05:42 280 441 29399 808 -40 CLIMB
2026-05-08 11:06:12 278 444 30378 836 -42 CLIMB
2026-05-08 11:06:42 270 440 31546 863 -44 CLIMB
2026-05-08 11:07:12 263 435 32654 890 -45 CLIMB
2026-05-08 11:07:42 261 437 33305 912 -46 ENROUTE
2026-05-08 11:08:12 260 436 33328 931 -46 ENROUTE
2026-05-08 11:08:42 260 436 33330 947 -46 ENROUTE
2026-05-08 11:09:12 260 436 33331 965 -46 ENROUTE
2026-05-08 11:09:42 261 435 33397 983 -46 ENROUTE
2026-05-08 11:10:12 260 434 33405 1001 -46 ENROUTE
2026-05-08 11:10:42 260 434 33403 1019 -46 ENROUTE
2026-05-08 11:11:12 260 433 33403 1036 -46 ENROUTE
2026-05-08 11:11:42 260 433 33403 1054 -46 ENROUTE
2026-05-08 11:12:12 261 433 33404 1071 -46 ENROUTE
2026-05-08 11:12:42 260 431 33426 1089 -46 ENROUTE
2026-05-08 11:13:12 260 430 33458 1107 -46 ENROUTE
2026-05-08 11:13:42 259 430 33458 1125 -46 ENROUTE
2026-05-08 11:14:12 259 430 33459 1142 -46 ENROUTE
2026-05-08 11:14:42 259 430 33462 1161 -46 ENROUTE
2026-05-08 11:15:12 261 429 33487 1177 -45 ENROUTE
2026-05-08 11:15:42 260 427 33491 1195 -45 ENROUTE
2026-05-08 11:16:12 259 427 33490 1213 -45 ENROUTE
2026-05-08 11:16:42 259 427 33490 1230 -45 ENROUTE
2026-05-08 11:17:12 259 427 33490 1249 -46 ENROUTE
2026-05-08 11:17:42 261 426 33505 1267 -45 ENROUTE
2026-05-08 11:18:12 260 424 33522 1284 -45 ENROUTE
2026-05-08 11:18:42 259 423 33518 1301 -45 ENROUTE
2026-05-08 11:19:12 259 423 33521 1318 -45 ENROUTE
2026-05-08 11:19:42 259 423 33523 1336 -45 ENROUTE
2026-05-08 11:20:12 259 423 33540 1355 -45 ENROUTE
2026-05-08 11:20:42 260 422 33605 1373 -45 ENROUTE
2026-05-08 11:21:12 259 420 33522 1390 -45 DESCENT
2026-05-08 11:21:42 260 418 33031 1405 -44 DESCENT
2026-05-08 11:22:12 249 398 32542 1408 -44 DESCENT
2026-05-08 11:22:42 239 380 32054 1411 -43 DESCENT
2026-05-08 11:23:12 230 363 31564 1415 -42 DESCENT
2026-05-08 11:23:42 223 348 31072 1419 -41 DESCENT
2026-05-08 11:24:12 214 334 30580 1423 -41 DESCENT
2026-05-08 11:24:42 207 322 30085 1426 -40 DESCENT
2026-05-08 11:25:12 201 311 29591 1430 -39 DESCENT
2026-05-08 11:25:42 199 304 29096 1436 -38 DESCENT
2026-05-08 11:26:12 198 301 28597 1444 -37 DESCENT
2026-05-08 11:26:42 198 298 28099 1453 -36 DESCENT
2026-05-08 11:27:12 197 294 27601 1461 -35 DESCENT
2026-05-08 11:27:42 197 291 27105 1469 -34 DESCENT
2026-05-08 11:28:12 196 288 26606 1478 -33 DESCENT
2026-05-08 11:28:42 196 285 26108 1486 -31 DESCENT
2026-05-08 11:29:12 195 281 25610 1494 -30 DESCENT
2026-05-08 11:29:42 194 280 25115 1502 -29 DESCENT
2026-05-08 11:30:12 194 278 24613 1510 -28 DESCENT
2026-05-08 11:30:42 194 275 24114 1518 -27 DESCENT
2026-05-08 11:31:12 193 273 23617 1527 -26 DESCENT
2026-05-08 11:31:42 193 271 23120 1535 -25 DESCENT
2026-05-08 11:32:12 192 268 22622 1542 -23 DESCENT
2026-05-08 11:32:42 192 264 22124 1548 -22 DESCENT
2026-05-08 11:33:12 191 262 21624 1555 -21 DESCENT
2026-05-08 11:33:42 191 259 21127 1562 -20 DESCENT
2026-05-08 11:34:12 190 256 20628 1570 -18 DESCENT
2026-05-08 11:34:42 189 253 20130 1577 -17 DESCENT
2026-05-08 11:35:12 188 251 19632 1584 -15 DESCENT
2026-05-08 11:35:42 189 249 19145 1592 -14 DESCENT
2026-05-08 11:36:12 188 247 18886 1607 -13 DESCENT
2026-05-08 11:36:42 188 247 18637 1624 -12 DESCENT
2026-05-08 11:37:12 188 246 18388 1640 -12 DESCENT
2026-05-08 11:37:42 188 245 18138 1657 -11 DESCENT
2026-05-08 11:38:12 188 244 17889 1674 -11 DESCENT
2026-05-08 11:38:42 188 244 17642 1690 -10 DESCENT
2026-05-08 11:39:12 188 243 17392 1706 -10 DESCENT
2026-05-08 11:39:42 188 244 17143 1722 -9 DESCENT
2026-05-08 11:40:12 188 243 16893 1739 -8 DESCENT
2026-05-08 11:40:42 188 242 16643 1754 -8 DESCENT
2026-05-08 11:41:12 188 241 16394 1771 -8 DESCENT
2026-05-08 11:41:42 187 241 16147 1789 -7 DESCENT
2026-05-08 11:42:12 188 242 15898 1805 -6 DESCENT
2026-05-08 11:42:42 188 241 15644 1822 -6 DESCENT
2026-05-08 11:43:12 188 241 15396 1838 -5 DESCENT
2026-05-08 11:43:42 188 241 15148 1855 -5 DESCENT
2026-05-08 11:44:12 188 241 14902 1872 -4 DESCENT
2026-05-08 11:44:42 188 241 14652 1888 -4 DESCENT
2026-05-08 11:45:12 188 240 14402 1904 -3 DESCENT
2026-05-08 11:45:42 187 239 14152 1919 -3 DESCENT
2026-05-08 11:46:12 188 239 13901 1937 -2 DESCENT
2026-05-08 11:46:42 187 239 13650 1954 -2 DESCENT
2026-05-08 11:47:12 187 239 13403 1971 -1 DESCENT
2026-05-08 11:47:42 188 238 13150 1987 -1 DESCENT
2026-05-08 11:48:12 187 237 12961 2005 0 ENROUTE
2026-05-08 11:48:42 187 237 12957 2028 0 ENROUTE
2026-05-08 11:49:12 187 236 12962 2051 0 ENROUTE
2026-05-08 11:49:42 187 236 12961 2073 0 ENROUTE
2026-05-08 11:50:12 187 234 12955 2095 0 ENROUTE
2026-05-08 11:50:42 187 235 12962 2118 0 ENROUTE
2026-05-08 11:51:12 187 235 12961 2139 0 ENROUTE
2026-05-08 11:51:42 188 234 12955 2162 0 ENROUTE
2026-05-08 11:52:12 187 234 12960 2185 0 ENROUTE
2026-05-08 11:52:42 187 234 12961 2207 0 ENROUTE
2026-05-08 11:53:12 187 234 12960 2230 0 ENROUTE
2026-05-08 11:53:42 187 234 12962 2252 0 ENROUTE
2026-05-08 11:54:12 187 234 12960 2275 0 ENROUTE
2026-05-08 11:54:42 188 234 12591 2286 0 DESCENT
2026-05-08 11:55:12 188 230 12085 2292 0 DESCENT
2026-05-08 11:55:42 188 227 11591 2299 1 DESCENT
2026-05-08 11:56:12 188 225 11094 2306 1 DESCENT
2026-05-08 11:56:42 187 222 10594 2311 2 DESCENT
2026-05-08 11:57:12 188 221 10099 2317 2 DESCENT
2026-05-08 11:57:42 187 219 9596 2326 3 DESCENT
2026-05-08 11:58:12 187 217 9102 2334 3 DESCENT
2026-05-08 11:58:42 187 217 8606 2344 4 DESCENT
2026-05-08 11:59:12 187 217 8110 2352 5 DESCENT
2026-05-08 11:59:42 187 216 7601 2360 5 DESCENT
2026-05-08 12:00:12 188 215 7109 2368 6 DESCENT
2026-05-08 12:00:42 186 214 6610 2377 6 DESCENT
2026-05-08 12:01:12 186 212 6103 2387 7 DESCENT
2026-05-08 12:01:42 186 213 5712 2401 8 DESCENT
2026-05-08 12:02:12 186 213 5462 2418 8 DESCENT
2026-05-08 12:02:42 186 213 5214 2435 8 DESCENT
2026-05-08 12:03:12 188 213 4965 2453 9 DESCENT
2026-05-08 12:03:42 185 212 4787 2473 9 ENROUTE
2026-05-08 12:04:12 186 213 4779 2497 9 ENROUTE
2026-05-08 12:04:42 188 213 4776 2522 9 ENROUTE
2026-05-08 12:05:12 186 212 4780 2546 9 ENROUTE
2026-05-08 12:05:42 185 212 4783 2572 9 ENROUTE
2026-05-08 12:06:12 186 214 4792 2599 9 ENROUTE
2026-05-08 12:06:42 186 214 4792 2624 9 ENROUTE
2026-05-08 12:07:12 185 213 4791 2649 9 ENROUTE
2026-05-08 12:07:42 186 213 4786 2673 9 ENROUTE
2026-05-08 12:08:12 186 215 4795 2699 9 ENROUTE
2026-05-08 12:08:42 186 213 4798 2722 8 ENROUTE
2026-05-08 12:09:12 187 212 4799 2746 8 ENROUTE
2026-05-08 12:09:42 184 212 4800 2771 8 ENROUTE
2026-05-08 12:10:12 187 213 4805 2796 8 ENROUTE
2026-05-08 12:10:42 186 212 4803 2818 8 ENROUTE
2026-05-08 12:11:12 185 186 4803 2840 7 ENROUTE
2026-05-08 12:11:42 185 172 4800 2863 7 ENROUTE
2026-05-08 12:12:12 186 168 4390 2873 8 DESCENT
2026-05-08 12:12:42 186 166 3904 2878 7 DESCENT
2026-05-08 12:13:12 185 165 3821 2899 7 ENROUTE
2026-05-08 12:13:42 169 147 3842 2917 7 ENROUTE
2026-05-08 12:14:12 169 147 3828 2944 7 ENROUTE
2026-05-08 12:14:42 168 147 3820 2968 7 ENROUTE
2026-05-08 12:15:12 168 168 3816 2996 7 ENROUTE
2026-05-08 12:15:42 167 212 3674 3021 7 DESCENT
2026-05-08 12:16:12 178 219 3141 3028 6 DESCENT
2026-05-08 12:16:42 182 221 2497 3034 8 DESCENT
2026-05-08 12:17:12 179 213 1929 3041 9 APPROACH
2026-05-08 12:17:42 178 207 1386 3046 10 APPROACH
2026-05-08 12:18:12 179 203 831 3053 14 ON FINAL
2026-05-08 12:18:42 154 176 323 3060 15 ON FINAL
2026-05-08 12:19:12 115 133 16 3069 15 ON FINAL
2026-05-08 12:19:42 15 32 20 3084 15 ON FINAL
2026-05-08 12:20:12 36 17 18 3089 15 TAXI TO APRON
2026-05-08 12:20:42 34 19 18 3095 15 TAXI TO APRON
2026-05-08 12:21:12 38 21 17 3101 15 TAXI TO APRON
2026-05-08 12:21:42 39 21 17 3107 15 TAXI TO APRON
2026-05-08 12:22:12 24 10 17 3114 15 TAXI TO APRON
2026-05-08 12:22:42 28 12 17 3119 15 TAXI TO APRON
2026-05-08 12:23:12 2 3 17 3126 15 TAXI TO APRON
  • Join our VA!

    It has been 11 years of great learning, friendships, and stories.

  • Sign up now!